sensor_id;sensor_type;location;lat;lon;timestamp;P1;durP1;ratioP1;P2;durP2;ratioP2
37787;SDS011;23627;53.302;-6.362;2022-09-27T00:02:16;12.30;;;2.25;;
37787;SDS011;23627;53.302;-6.362;2022-09-27T00:04:42;12.85;;;2.95;;
37787;SDS011;23627;53.302;-6.362;2022-09-27T00:07:08;10.98;;;2.15;;
37787;SDS011;23627;53.302;-6.362;2022-09-27T00:09:35;11.73;;;2.10;;
37787;SDS011;23627;53.302;-6.362;2022-09-27T00:12:01;10.43;;;2.00;;
37787;SDS011;23627;53.302;-6.362;2022-09-27T00:14:26;14.77;;;2.42;;
37787;SDS011;23627;53.302;-6.362;2022-09-27T00:16:52;10.85;;;2.47;;
37787;SDS011;23627;53.302;-6.362;2022-09-27T00:19:19;11.00;;;2.20;;
37787;SDS011;23627;53.302;-6.362;2022-09-27T00:21:46;10.98;;;1.88;;
37787;SDS011;23627;53.302;-6.362;2022-09-27T00:24:15;9.23;;;1.95;;
37787;SDS011;23627;53.302;-6.362;2022-09-27T00:26:42;12.65;;;2.55;;
37787;SDS011;23627;53.302;-6.362;2022-09-27T00:29:09;7.95;;;1.98;;
37787;SDS011;23627;53.302;-6.362;2022-09-27T00:31:36;10.30;;;2.20;;
37787;SDS011;23627;53.302;-6.362;2022-09-27T00:34:03;11.88;;;2.25;;
37787;SDS011;23627;53.302;-6.362;2022-09-27T00:36:30;13.93;;;2.25;;
37787;SDS011;23627;53.302;-6.362;2022-09-27T00:38:57;9.38;;;2.10;;
37787;SDS011;23627;53.302;-6.362;2022-09-27T00:41:27;14.13;;;2.20;;
37787;SDS011;23627;53.302;-6.362;2022-09-27T00:43:59;13.45;;;2.25;;
37787;SDS011;23627;53.302;-6.362;2022-09-27T00:46:49;13.20;;;2.65;;
37787;SDS011;23627;53.302;-6.362;2022-09-27T00:51:57;13.63;;;2.10;;
37787;SDS011;23627;53.302;-6.362;2022-09-27T00:54:27;10.05;;;2.30;;
37787;SDS011;23627;53.302;-6.362;2022-09-27T00:56:54;13.90;;;2.25;;
37787;SDS011;23627;53.302;-6.362;2022-09-27T00:59:25;12.75;;;2.10;;
37787;SDS011;23627;53.302;-6.362;2022-09-27T01:01:56;13.88;;;2.67;;
37787;SDS011;23627;53.302;-6.362;2022-09-27T01:04:23;10.52;;;2.50;;
37787;SDS011;23627;53.302;-6.362;2022-09-27T01:06:51;12.98;;;2.67;;
37787;SDS011;23627;53.302;-6.362;2022-09-27T01:09:17;12.32;;;2.47;;
37787;SDS011;23627;53.302;-6.362;2022-09-27T01:11:44;10.48;;;2.55;;
37787;SDS011;23627;53.302;-6.362;2022-09-27T01:31:41;13.45;;;2.55;;
37787;SDS011;23627;53.302;-6.362;2022-09-27T01:34:26;11.43;;;2.15;;
37787;SDS011;23627;53.302;-6.362;2022-09-27T01:37:16;14.55;;;2.78;;
37787;SDS011;23627;53.302;-6.362;2022-09-27T01:40:01;12.45;;;2.42;;
37787;SDS011;23627;53.302;-6.362;2022-09-27T01:42:55;12.30;;;2.67;;
37787;SDS011;23627;53.302;-6.362;2022-09-27T01:45:29;16.17;;;2.60;;
37787;SDS011;23627;53.302;-6.362;2022-09-27T01:48:14;13.38;;;2.78;;
37787;SDS011;23627;53.302;-6.362;2022-09-27T01:50:44;14.68;;;2.53;;
37787;SDS011;23627;53.302;-6.362;2022-09-27T01:53:21;15.73;;;2.50;;
37787;SDS011;23627;53.302;-6.362;2022-09-27T01:55:51;17.20;;;2.63;;
37787;SDS011;23627;53.302;-6.362;2022-09-27T02:00:51;13.25;;;2.60;;
37787;SDS011;23627;53.302;-6.362;2022-09-27T02:03:31;13.55;;;2.58;;
37787;SDS011;23627;53.302;-6.362;2022-09-27T02:06:02;18.25;;;2.75;;
37787;SDS011;23627;53.302;-6.362;2022-09-27T02:11:08;13.32;;;2.65;;
37787;SDS011;23627;53.302;-6.362;2022-09-27T02:19:25;14.10;;;2.65;;
37787;SDS011;23627;53.302;-6.362;2022-09-27T02:27:39;17.20;;;3.33;;
37787;SDS011;23627;53.302;-6.362;2022-09-27T02:30:18;16.70;;;2.78;;
37787;SDS011;23627;53.302;-6.362;2022-09-27T02:32:44;18.48;;;3.00;;
37787;SDS011;23627;53.302;-6.362;2022-09-27T02:35:12;17.27;;;3.20;;
37787;SDS011;23627;53.302;-6.362;2022-09-27T02:37:55;14.55;;;3.00;;
37787;SDS011;23627;53.302;-6.362;2022-09-27T02:40:23;13.40;;;3.08;;
37787;SDS011;23627;53.302;-6.362;2022-09-27T02:42:50;13.20;;;3.10;;
37787;SDS011;23627;53.302;-6.362;2022-09-27T02:45:17;12.55;;;2.78;;
37787;SDS011;23627;53.302;-6.362;2022-09-27T02:48:09;18.55;;;2.80;;
37787;SDS011;23627;53.302;-6.362;2022-09-27T03:07:07;13.50;;;2.30;;
37787;SDS011;23627;53.302;-6.362;2022-09-27T03:09:41;15.65;;;2.40;;
37787;SDS011;23627;53.302;-6.362;2022-09-27T03:12:10;15.95;;;2.92;;
37787;SDS011;23627;53.302;-6.362;2022-09-27T03:14:36;16.73;;;2.80;;
37787;SDS011;23627;53.302;-6.362;2022-09-27T03:17:02;12.55;;;2.75;;
37787;SDS011;23627;53.302;-6.362;2022-09-27T03:19:27;14.63;;;3.05;;
37787;SDS011;23627;53.302;-6.362;2022-09-27T03:21:53;12.02;;;2.60;;
37787;SDS011;23627;53.302;-6.362;2022-09-27T03:24:19;14.82;;;2.47;;
37787;SDS011;23627;53.302;-6.362;2022-09-27T03:26:45;17.42;;;3.25;;
37787;SDS011;23627;53.302;-6.362;2022-09-27T03:29:11;13.88;;;3.08;;
37787;SDS011;23627;53.302;-6.362;2022-09-27T03:31:36;17.50;;;2.80;;
37787;SDS011;23627;53.302;-6.362;2022-09-27T03:34:02;13.32;;;2.70;;
37787;SDS011;23627;53.302;-6.362;2022-09-27T03:36:28;12.10;;;2.47;;
37787;SDS011;23627;53.302;-6.362;2022-09-27T03:38:54;11.98;;;3.25;;
37787;SDS011;23627;53.302;-6.362;2022-09-27T03:41:19;12.32;;;2.53;;
37787;SDS011;23627;53.302;-6.362;2022-09-27T03:43:45;14.10;;;2.47;;
37787;SDS011;23627;53.302;-6.362;2022-09-27T03:46:11;12.82;;;2.80;;
37787;SDS011;23627;53.302;-6.362;2022-09-27T03:48:36;16.70;;;2.45;;
37787;SDS011;23627;53.302;-6.362;2022-09-27T03:51:02;15.00;;;2.75;;
37787;SDS011;23627;53.302;-6.362;2022-09-27T03:53:28;16.20;;;3.33;;
37787;SDS011;23627;53.302;-6.362;2022-09-27T03:55:54;14.98;;;2.60;;
37787;SDS011;23627;53.302;-6.362;2022-09-27T03:58:21;16.77;;;2.78;;
37787;SDS011;23627;53.302;-6.362;2022-09-27T04:00:46;13.32;;;2.53;;
37787;SDS011;23627;53.302;-6.362;2022-09-27T04:03:13;11.98;;;2.90;;
37787;SDS011;23627;53.302;-6.362;2022-09-27T04:05:38;13.15;;;2.53;;
37787;SDS011;23627;53.302;-6.362;2022-09-27T04:08:04;14.75;;;2.40;;
37787;SDS011;23627;53.302;-6.362;2022-09-27T04:10:31;16.77;;;2.97;;
37787;SDS011;23627;53.302;-6.362;2022-09-27T04:12:57;14.13;;;2.67;;
37787;SDS011;23627;53.302;-6.362;2022-09-27T04:15:23;15.45;;;2.88;;
37787;SDS011;23627;53.302;-6.362;2022-09-27T04:17:49;11.90;;;2.30;;
37787;SDS011;23627;53.302;-6.362;2022-09-27T04:20:15;15.90;;;2.67;;
37787;SDS011;23627;53.302;-6.362;2022-09-27T04:22:42;16.17;;;2.88;;
37787;SDS011;23627;53.302;-6.362;2022-09-27T04:25:09;17.20;;;3.03;;
37787;SDS011;23627;53.302;-6.362;2022-09-27T04:27:36;15.75;;;2.50;;
37787;SDS011;23627;53.302;-6.362;2022-09-27T04:30:02;16.15;;;2.70;;
37787;SDS011;23627;53.302;-6.362;2022-09-27T04:32:28;17.60;;;3.03;;
37787;SDS011;23627;53.302;-6.362;2022-09-27T04:34:53;14.18;;;2.90;;
37787;SDS011;23627;53.302;-6.362;2022-09-27T04:37:38;15.90;;;2.67;;
37787;SDS011;23627;53.302;-6.362;2022-09-27T04:40:04;17.83;;;2.95;;
37787;SDS011;23627;53.302;-6.362;2022-09-27T04:42:29;13.93;;;2.55;;
37787;SDS011;23627;53.302;-6.362;2022-09-27T04:44:55;14.20;;;2.55;;
37787;SDS011;23627;53.302;-6.362;2022-09-27T04:47:21;17.35;;;2.35;;
37787;SDS011;23627;53.302;-6.362;2022-09-27T04:49:47;18.30;;;2.88;;
37787;SDS011;23627;53.302;-6.362;2022-09-27T04:52:13;17.85;;;2.97;;
37787;SDS011;23627;53.302;-6.362;2022-09-27T04:54:39;19.13;;;2.97;;
37787;SDS011;23627;53.302;-6.362;2022-09-27T04:57:06;15.07;;;2.63;;
37787;SDS011;23627;53.302;-6.362;2022-09-27T04:59:32;11.15;;;2.50;;
37787;SDS011;23627;53.302;-6.362;2022-09-27T05:01:58;14.55;;;2.60;;
37787;SDS011;23627;53.302;-6.362;2022-09-27T05:04:24;15.77;;;2.70;;
37787;SDS011;23627;53.302;-6.362;2022-09-27T05:06:50;14.57;;;2.80;;
37787;SDS011;23627;53.302;-6.362;2022-09-27T05:09:16;18.65;;;2.47;;
37787;SDS011;23627;53.302;-6.362;2022-09-27T05:11:42;12.95;;;2.58;;
37787;SDS011;23627;53.302;-6.362;2022-09-27T05:14:08;14.77;;;2.40;;
37787;SDS011;23627;53.302;-6.362;2022-09-27T05:16:34;15.88;;;2.95;;
37787;SDS011;23627;53.302;-6.362;2022-09-27T05:19:00;15.40;;;2.92;;
37787;SDS011;23627;53.302;-6.362;2022-09-27T05:21:27;19.05;;;2.78;;
37787;SDS011;23627;53.302;-6.362;2022-09-27T05:23:53;13.15;;;2.42;;
37787;SDS011;23627;53.302;-6.362;2022-09-27T05:26:19;14.88;;;2.42;;
37787;SDS011;23627;53.302;-6.362;2022-09-27T05:28:45;14.07;;;2.67;;
37787;SDS011;23627;53.302;-6.362;2022-09-27T05:31:12;15.52;;;2.97;;
37787;SDS011;23627;53.302;-6.362;2022-09-27T05:33:38;12.05;;;2.58;;
37787;SDS011;23627;53.302;-6.362;2022-09-27T05:36:05;15.55;;;2.90;;
37787;SDS011;23627;53.302;-6.362;2022-09-27T05:38:32;15.07;;;2.60;;
37787;SDS011;23627;53.302;-6.362;2022-09-27T05:40:59;14.73;;;2.50;;
37787;SDS011;23627;53.302;-6.362;2022-09-27T05:43:25;12.57;;;2.42;;
37787;SDS011;23627;53.302;-6.362;2022-09-27T05:45:52;17.15;;;2.65;;
37787;SDS011;23627;53.302;-6.362;2022-09-27T05:48:18;17.50;;;3.08;;
37787;SDS011;23627;53.302;-6.362;2022-09-27T05:50:44;15.48;;;2.65;;
37787;SDS011;23627;53.302;-6.362;2022-09-27T05:53:10;15.43;;;3.20;;
37787;SDS011;23627;53.302;-6.362;2022-09-27T05:55:37;15.55;;;2.38;;
37787;SDS011;23627;53.302;-6.362;2022-09-27T05:58:07;18.67;;;3.30;;
37787;SDS011;23627;53.302;-6.362;2022-09-27T06:00:34;12.38;;;2.65;;
37787;SDS011;23627;53.302;-6.362;2022-09-27T06:03:01;19.08;;;3.65;;
37787;SDS011;23627;53.302;-6.362;2022-09-27T06:05:29;14.82;;;2.65;;
37787;SDS011;23627;53.302;-6.362;2022-09-27T06:07:59;18.10;;;2.70;;
37787;SDS011;23627;53.302;-6.362;2022-09-27T06:10:30;14.57;;;2.50;;
37787;SDS011;23627;53.302;-6.362;2022-09-27T06:13:00;17.10;;;2.70;;
37787;SDS011;23627;53.302;-6.362;2022-09-27T06:15:28;14.27;;;2.90;;
37787;SDS011;23627;53.302;-6.362;2022-09-27T06:17:55;12.75;;;2.85;;
37787;SDS011;23627;53.302;-6.362;2022-09-27T06:20:22;13.88;;;2.53;;
37787;SDS011;23627;53.302;-6.362;2022-09-27T06:22:48;13.15;;;2.28;;
37787;SDS011;23627;53.302;-6.362;2022-09-27T06:25:13;12.93;;;2.40;;
37787;SDS011;23627;53.302;-6.362;2022-09-27T06:27:39;14.05;;;2.47;;
37787;SDS011;23627;53.302;-6.362;2022-09-27T06:30:06;14.45;;;2.45;;
37787;SDS011;23627;53.302;-6.362;2022-09-27T06:32:32;19.27;;;3.05;;
37787;SDS011;23627;53.302;-6.362;2022-09-27T06:34:58;15.35;;;3.08;;
37787;SDS011;23627;53.302;-6.362;2022-09-27T06:37:24;16.50;;;2.95;;
37787;SDS011;23627;53.302;-6.362;2022-09-27T06:39:51;15.40;;;2.80;;
37787;SDS011;23627;53.302;-6.362;2022-09-27T06:42:18;17.55;;;2.72;;
37787;SDS011;23627;53.302;-6.362;2022-09-27T06:44:47;13.68;;;3.15;;
37787;SDS011;23627;53.302;-6.362;2022-09-27T06:47:19;13.60;;;2.40;;
37787;SDS011;23627;53.302;-6.362;2022-09-27T06:49:46;15.88;;;2.60;;
37787;SDS011;23627;53.302;-6.362;2022-09-27T06:52:15;13.48;;;2.78;;
37787;SDS011;23627;53.302;-6.362;2022-09-27T06:54:40;16.95;;;3.05;;
37787;SDS011;23627;53.302;-6.362;2022-09-27T06:57:09;13.85;;;2.78;;
37787;SDS011;23627;53.302;-6.362;2022-09-27T06:59:55;13.18;;;3.00;;
37787;SDS011;23627;53.302;-6.362;2022-09-27T07:02:39;16.63;;;2.90;;
37787;SDS011;23627;53.302;-6.362;2022-09-27T07:05:05;14.60;;;2.42;;
37787;SDS011;23627;53.302;-6.362;2022-09-27T07:07:34;20.30;;;3.22;;
37787;SDS011;23627;53.302;-6.362;2022-09-27T07:10:00;12.82;;;2.70;;
37787;SDS011;23627;53.302;-6.362;2022-09-27T07:12:34;17.85;;;3.25;;
37787;SDS011;23627;53.302;-6.362;2022-09-27T07:15:00;16.38;;;2.85;;
37787;SDS011;23627;53.302;-6.362;2022-09-27T07:18:20;16.17;;;2.70;;
37787;SDS011;23627;53.302;-6.362;2022-09-27T07:21:28;14.95;;;3.17;;
37787;SDS011;23627;53.302;-6.362;2022-09-27T07:23:54;14.15;;;2.60;;
37787;SDS011;23627;53.302;-6.362;2022-09-27T07:26:41;14.02;;;2.78;;
37787;SDS011;23627;53.302;-6.362;2022-09-27T07:29:34;17.83;;;3.28;;
37787;SDS011;23627;53.302;-6.362;2022-09-27T07:32:21;18.10;;;3.15;;
37787;SDS011;23627;53.302;-6.362;2022-09-27T07:34:51;17.13;;;3.13;;
37787;SDS011;23627;53.302;-6.362;2022-09-27T07:40:24;17.77;;;2.85;;
37787;SDS011;23627;53.302;-6.362;2022-09-27T07:43:55;21.13;;;3.28;;
37787;SDS011;23627;53.302;-6.362;2022-09-27T07:46:32;15.32;;;3.17;;
37787;SDS011;23627;53.302;-6.362;2022-09-27T07:49:02;20.58;;;3.53;;
37787;SDS011;23627;53.302;-6.362;2022-09-27T07:54:53;18.67;;;3.40;;
37787;SDS011;23627;53.302;-6.362;2022-09-27T07:57:20;16.58;;;3.15;;
37787;SDS011;23627;53.302;-6.362;2022-09-27T07:59:49;24.55;;;3.28;;
37787;SDS011;23627;53.302;-6.362;2022-09-27T08:02:16;19.98;;;3.20;;
37787;SDS011;23627;53.302;-6.362;2022-09-27T08:04:43;20.05;;;3.35;;
37787;SDS011;23627;53.302;-6.362;2022-09-27T08:07:22;18.10;;;3.15;;
37787;SDS011;23627;53.302;-6.362;2022-09-27T08:12:33;22.05;;;3.60;;
37787;SDS011;23627;53.302;-6.362;2022-09-27T08:15:01;22.05;;;3.05;;
37787;SDS011;23627;53.302;-6.362;2022-09-27T08:17:29;20.30;;;3.15;;
37787;SDS011;23627;53.302;-6.362;2022-09-27T08:19:55;20.85;;;3.17;;
37787;SDS011;23627;53.302;-6.362;2022-09-27T08:22:22;14.38;;;2.63;;
37787;SDS011;23627;53.302;-6.362;2022-09-27T08:24:48;14.57;;;2.75;;
37787;SDS011;23627;53.302;-6.362;2022-09-27T08:27:14;17.60;;;3.00;;
37787;SDS011;23627;53.302;-6.362;2022-09-27T08:29:41;17.58;;;3.38;;
37787;SDS011;23627;53.302;-6.362;2022-09-27T08:32:07;18.25;;;2.95;;
37787;SDS011;23627;53.302;-6.362;2022-09-27T08:34:34;19.25;;;3.30;;
37787;SDS011;23627;53.302;-6.362;2022-09-27T08:37:00;13.80;;;2.75;;
37787;SDS011;23627;53.302;-6.362;2022-09-27T08:39:26;16.75;;;2.85;;
37787;SDS011;23627;53.302;-6.362;2022-09-27T08:41:59;15.18;;;2.78;;
37787;SDS011;23627;53.302;-6.362;2022-09-27T08:49:58;16.60;;;2.63;;
37787;SDS011;23627;53.302;-6.362;2022-09-27T08:52:39;13.95;;;3.17;;
37787;SDS011;23627;53.302;-6.362;2022-09-27T08:55:19;14.45;;;3.05;;
37787;SDS011;23627;53.302;-6.362;2022-09-27T08:58:01;16.02;;;2.88;;
37787;SDS011;23627;53.302;-6.362;2022-09-27T09:00:36;17.70;;;3.42;;
37787;SDS011;23627;53.302;-6.362;2022-09-27T09:03:02;15.80;;;2.90;;
37787;SDS011;23627;53.302;-6.362;2022-09-27T09:05:34;16.00;;;3.05;;
37787;SDS011;23627;53.302;-6.362;2022-09-27T09:09:07;16.20;;;2.90;;
37787;SDS011;23627;53.302;-6.362;2022-09-27T09:14:42;16.45;;;3.13;;
37787;SDS011;23627;53.302;-6.362;2022-09-27T09:17:27;14.70;;;3.17;;
37787;SDS011;23627;53.302;-6.362;2022-09-27T09:25:15;14.93;;;3.13;;
37787;SDS011;23627;53.302;-6.362;2022-09-27T09:30:22;17.70;;;2.80;;
37787;SDS011;23627;53.302;-6.362;2022-09-27T09:35:26;17.00;;;2.80;;
37787;SDS011;23627;53.302;-6.362;2022-09-27T09:38:00;15.23;;;3.05;;
37787;SDS011;23627;53.302;-6.362;2022-09-27T09:40:50;13.82;;;2.85;;
37787;SDS011;23627;53.302;-6.362;2022-09-27T09:43:44;12.70;;;2.45;;
37787;SDS011;23627;53.302;-6.362;2022-09-27T09:48:54;17.38;;;3.03;;
37787;SDS011;23627;53.302;-6.362;2022-09-27T09:51:31;17.27;;;2.67;;
37787;SDS011;23627;53.302;-6.362;2022-09-27T09:59:42;16.95;;;3.30;;
37787;SDS011;23627;53.302;-6.362;2022-09-27T10:02:16;15.88;;;2.97;;
37787;SDS011;23627;53.302;-6.362;2022-09-27T10:04:52;13.80;;;3.17;;
37787;SDS011;23627;53.302;-6.362;2022-09-27T10:07:20;17.45;;;3.22;;
37787;SDS011;23627;53.302;-6.362;2022-09-27T10:09:47;16.52;;;2.72;;
37787;SDS011;23627;53.302;-6.362;2022-09-27T10:12:15;14.20;;;2.45;;
37787;SDS011;23627;53.302;-6.362;2022-09-27T10:14:41;19.13;;;3.70;;
37787;SDS011;23627;53.302;-6.362;2022-09-27T10:17:10;17.25;;;2.85;;
37787;SDS011;23627;53.302;-6.362;2022-09-27T10:19:39;15.88;;;2.80;;
37787;SDS011;23627;53.302;-6.362;2022-09-27T10:25:08;17.13;;;2.88;;
37787;SDS011;23627;53.302;-6.362;2022-09-27T10:30:11;14.85;;;2.33;;
37787;SDS011;23627;53.302;-6.362;2022-09-27T10:32:49;19.13;;;3.47;;
37787;SDS011;23627;53.302;-6.362;2022-09-27T10:40:43;11.23;;;2.63;;
37787;SDS011;23627;53.302;-6.362;2022-09-27T10:43:30;17.15;;;3.35;;
37787;SDS011;23627;53.302;-6.362;2022-09-27T10:49:08;14.40;;;2.85;;
37787;SDS011;23627;53.302;-6.362;2022-09-27T10:51:36;14.93;;;2.78;;
37787;SDS011;23627;53.302;-6.362;2022-09-27T10:54:02;14.18;;;2.28;;
37787;SDS011;23627;53.302;-6.362;2022-09-27T10:56:30;14.85;;;2.60;;
37787;SDS011;23627;53.302;-6.362;2022-09-27T10:58:58;13.85;;;2.40;;
37787;SDS011;23627;53.302;-6.362;2022-09-27T11:01:36;14.48;;;2.33;;
37787;SDS011;23627;53.302;-6.362;2022-09-27T11:04:16;19.35;;;2.83;;
37787;SDS011;23627;53.302;-6.362;2022-09-27T11:06:45;12.73;;;2.40;;
37787;SDS011;23627;53.302;-6.362;2022-09-27T11:09:30;15.27;;;2.70;;
37787;SDS011;23627;53.302;-6.362;2022-09-27T11:12:09;14.02;;;2.47;;
37787;SDS011;23627;53.302;-6.362;2022-09-27T11:14:37;13.18;;;2.53;;
37787;SDS011;23627;53.302;-6.362;2022-09-27T11:20:13;12.38;;;2.55;;
37787;SDS011;23627;53.302;-6.362;2022-09-27T11:22:47;10.27;;;2.70;;
37787;SDS011;23627;53.302;-6.362;2022-09-27T11:31:02;10.02;;;2.47;;
37787;SDS011;23627;53.302;-6.362;2022-09-27T11:36:48;11.70;;;2.00;;
37787;SDS011;23627;53.302;-6.362;2022-09-27T11:47:55;10.25;;;1.90;;
37787;SDS011;23627;53.302;-6.362;2022-09-27T12:02:15;11.82;;;2.15;;
37787;SDS011;23627;53.302;-6.362;2022-09-27T12:10:24;11.02;;;1.85;;
37787;SDS011;23627;53.302;-6.362;2022-09-27T12:12:50;9.82;;;1.88;;
37787;SDS011;23627;53.302;-6.362;2022-09-27T12:15:20;11.60;;;2.10;;
37787;SDS011;23627;53.302;-6.362;2022-09-27T12:17:55;10.45;;;2.25;;
37787;SDS011;23627;53.302;-6.362;2022-09-27T12:21:19;11.05;;;2.22;;
37787;SDS011;23627;53.302;-6.362;2022-09-27T12:24:14;12.35;;;2.28;;
37787;SDS011;23627;53.302;-6.362;2022-09-27T12:30:05;10.45;;;1.83;;
37787;SDS011;23627;53.302;-6.362;2022-09-27T12:36:17;10.93;;;2.00;;
37787;SDS011;23627;53.302;-6.362;2022-09-27T12:39:17;6.90;;;1.90;;
37787;SDS011;23627;53.302;-6.362;2022-09-27T12:41:59;7.72;;;1.67;;
37787;SDS011;23627;53.302;-6.362;2022-09-27T12:45:01;10.52;;;1.80;;
37787;SDS011;23627;53.302;-6.362;2022-09-27T12:51:13;13.45;;;2.20;;
37787;SDS011;23627;53.302;-6.362;2022-09-27T13:07:56;8.15;;;2.08;;
37787;SDS011;23627;53.302;-6.362;2022-09-27T13:16:07;8.88;;;1.90;;
37787;SDS011;23627;53.302;-6.362;2022-09-27T13:30:56;7.03;;;1.77;;
37787;SDS011;23627;53.302;-6.362;2022-09-27T13:43:57;9.05;;;1.98;;
37787;SDS011;23627;53.302;-6.362;2022-09-27T13:46:39;8.10;;;1.85;;
37787;SDS011;23627;53.302;-6.362;2022-09-27T13:49:41;7.75;;;2.00;;
37787;SDS011;23627;53.302;-6.362;2022-09-27T13:52:16;4.57;;;1.45;;
37787;SDS011;23627;53.302;-6.362;2022-09-27T14:01:31;8.32;;;1.75;;
37787;SDS011;23627;53.302;-6.362;2022-09-27T14:04:16;8.70;;;1.73;;
37787;SDS011;23627;53.302;-6.362;2022-09-27T14:07:20;11.30;;;1.83;;
37787;SDS011;23627;53.302;-6.362;2022-09-27T14:10:20;6.45;;;1.70;;
37787;SDS011;23627;53.302;-6.362;2022-09-27T14:13:27;5.43;;;1.50;;
37787;SDS011;23627;53.302;-6.362;2022-09-27T14:26:23;8.60;;;1.70;;
37787;SDS011;23627;53.302;-6.362;2022-09-27T14:29:00;8.30;;;1.70;;
37787;SDS011;23627;53.302;-6.362;2022-09-27T14:31:26;10.18;;;1.73;;
37787;SDS011;23627;53.302;-6.362;2022-09-27T14:52:37;8.90;;;2.03;;
37787;SDS011;23627;53.302;-6.362;2022-09-27T14:55:06;9.35;;;1.70;;
37787;SDS011;23627;53.302;-6.362;2022-09-27T14:57:58;5.70;;;1.60;;
37787;SDS011;23627;53.302;-6.362;2022-09-27T15:00:32;9.80;;;2.30;;
37787;SDS011;23627;53.302;-6.362;2022-09-27T15:03:01;7.45;;;1.70;;
37787;SDS011;23627;53.302;-6.362;2022-09-27T15:05:30;9.82;;;1.80;;
37787;SDS011;23627;53.302;-6.362;2022-09-27T15:07:58;6.97;;;1.52;;
37787;SDS011;23627;53.302;-6.362;2022-09-27T15:10:27;8.68;;;1.90;;
37787;SDS011;23627;53.302;-6.362;2022-09-27T15:12:57;6.93;;;1.55;;
37787;SDS011;23627;53.302;-6.362;2022-09-27T15:15:31;7.22;;;1.85;;
37787;SDS011;23627;53.302;-6.362;2022-09-27T15:18:28;6.40;;;1.85;;
37787;SDS011;23627;53.302;-6.362;2022-09-27T15:23:46;9.68;;;1.88;;
37787;SDS011;23627;53.302;-6.362;2022-09-27T15:28:43;9.40;;;2.20;;
37787;SDS011;23627;53.302;-6.362;2022-09-27T15:31:13;10.95;;;2.10;;
37787;SDS011;23627;53.302;-6.362;2022-09-27T15:33:41;8.05;;;1.42;;
37787;SDS011;23627;53.302;-6.362;2022-09-27T15:54:28;5.20;;;1.40;;
37787;SDS011;23627;53.302;-6.362;2022-09-27T16:09:56;6.32;;;1.50;;
37787;SDS011;23627;53.302;-6.362;2022-09-27T16:12:28;4.40;;;1.30;;
37787;SDS011;23627;53.302;-6.362;2022-09-27T16:14:55;11.35;;;1.42;;
37787;SDS011;23627;53.302;-6.362;2022-09-27T16:17:21;7.43;;;1.35;;
37787;SDS011;23627;53.302;-6.362;2022-09-27T16:27:09;6.32;;;1.63;;
37787;SDS011;23627;53.302;-6.362;2022-09-27T16:29:53;6.57;;;1.50;;
37787;SDS011;23627;53.302;-6.362;2022-09-27T16:32:47;4.70;;;1.42;;
37787;SDS011;23627;53.302;-6.362;2022-09-27T16:35:13;8.43;;;1.90;;
37787;SDS011;23627;53.302;-6.362;2022-09-27T16:37:40;6.18;;;1.73;;
37787;SDS011;23627;53.302;-6.362;2022-09-27T16:40:06;5.90;;;1.33;;
37787;SDS011;23627;53.302;-6.362;2022-09-27T16:42:59;6.80;;;1.60;;
37787;SDS011;23627;53.302;-6.362;2022-09-27T16:45:48;8.05;;;1.70;;
37787;SDS011;23627;53.302;-6.362;2022-09-27T16:48:27;8.02;;;1.90;;
37787;SDS011;23627;53.302;-6.362;2022-09-27T16:54:11;7.53;;;1.52;;
37787;SDS011;23627;53.302;-6.362;2022-09-27T16:56:39;7.75;;;1.48;;
37787;SDS011;23627;53.302;-6.362;2022-09-27T17:01:51;6.85;;;1.60;;
37787;SDS011;23627;53.302;-6.362;2022-09-27T17:04:20;7.95;;;1.77;;
37787;SDS011;23627;53.302;-6.362;2022-09-27T17:06:46;7.55;;;1.60;;
37787;SDS011;23627;53.302;-6.362;2022-09-27T17:09:12;7.93;;;2.05;;
37787;SDS011;23627;53.302;-6.362;2022-09-27T17:11:38;6.35;;;1.38;;
37787;SDS011;23627;53.302;-6.362;2022-09-27T17:14:04;6.97;;;1.65;;
37787;SDS011;23627;53.302;-6.362;2022-09-27T17:16:52;7.72;;;1.50;;
37787;SDS011;23627;53.302;-6.362;2022-09-27T17:19:29;8.65;;;1.75;;
37787;SDS011;23627;53.302;-6.362;2022-09-27T17:21:56;7.95;;;1.60;;
37787;SDS011;23627;53.302;-6.362;2022-09-27T17:24:22;6.47;;;1.30;;
37787;SDS011;23627;53.302;-6.362;2022-09-27T17:26:48;7.50;;;1.63;;
37787;SDS011;23627;53.302;-6.362;2022-09-27T17:29:15;6.15;;;1.50;;
37787;SDS011;23627;53.302;-6.362;2022-09-27T17:31:41;6.60;;;1.67;;
37787;SDS011;23627;53.302;-6.362;2022-09-27T17:34:09;7.63;;;1.92;;
37787;SDS011;23627;53.302;-6.362;2022-09-27T17:36:40;4.82;;;1.27;;
37787;SDS011;23627;53.302;-6.362;2022-09-27T17:39:12;5.13;;;1.40;;
37787;SDS011;23627;53.302;-6.362;2022-09-27T17:41:39;7.38;;;1.75;;
37787;SDS011;23627;53.302;-6.362;2022-09-27T17:44:05;5.10;;;1.83;;
37787;SDS011;23627;53.302;-6.362;2022-09-27T17:46:32;10.23;;;1.75;;
37787;SDS011;23627;53.302;-6.362;2022-09-27T17:49:02;6.05;;;2.10;;
37787;SDS011;23627;53.302;-6.362;2022-09-27T17:51:47;7.30;;;1.58;;
37787;SDS011;23627;53.302;-6.362;2022-09-27T17:54:14;6.47;;;1.88;;
37787;SDS011;23627;53.302;-6.362;2022-09-27T17:56:43;7.90;;;1.52;;
37787;SDS011;23627;53.302;-6.362;2022-09-27T17:59:09;6.43;;;1.95;;
37787;SDS011;23627;53.302;-6.362;2022-09-27T18:01:37;7.05;;;1.85;;
37787;SDS011;23627;53.302;-6.362;2022-09-27T18:04:03;6.95;;;1.80;;
37787;SDS011;23627;53.302;-6.362;2022-09-27T18:06:32;8.80;;;1.67;;
37787;SDS011;23627;53.302;-6.362;2022-09-27T18:08:58;7.18;;;2.40;;
37787;SDS011;23627;53.302;-6.362;2022-09-27T18:11:26;7.55;;;1.95;;
37787;SDS011;23627;53.302;-6.362;2022-09-27T18:13:53;6.28;;;2.67;;
37787;SDS011;23627;53.302;-6.362;2022-09-27T18:16:30;6.65;;;1.80;;
37787;SDS011;23627;53.302;-6.362;2022-09-27T18:19:01;6.72;;;1.65;;
37787;SDS011;23627;53.302;-6.362;2022-09-27T18:21:29;4.47;;;1.90;;
37787;SDS011;23627;53.302;-6.362;2022-09-27T18:23:55;6.85;;;1.88;;
37787;SDS011;23627;53.302;-6.362;2022-09-27T18:26:23;6.03;;;2.10;;
37787;SDS011;23627;53.302;-6.362;2022-09-27T18:28:51;7.13;;;1.85;;
37787;SDS011;23627;53.302;-6.362;2022-09-27T18:31:19;5.40;;;1.70;;
37787;SDS011;23627;53.302;-6.362;2022-09-27T18:39:12;6.88;;;2.17;;
37787;SDS011;23627;53.302;-6.362;2022-09-27T18:44:24;8.38;;;1.83;;
37787;SDS011;23627;53.302;-6.362;2022-09-27T18:46:56;4.72;;;1.60;;
37787;SDS011;23627;53.302;-6.362;2022-09-27T18:49:22;6.95;;;1.80;;
37787;SDS011;23627;53.302;-6.362;2022-09-27T18:51:52;5.22;;;1.50;;
37787;SDS011;23627;53.302;-6.362;2022-09-27T18:54:21;5.05;;;1.80;;
37787;SDS011;23627;53.302;-6.362;2022-09-27T18:56:48;5.72;;;2.00;;
37787;SDS011;23627;53.302;-6.362;2022-09-27T18:59:16;5.32;;;1.60;;
37787;SDS011;23627;53.302;-6.362;2022-09-27T19:01:43;4.35;;;1.50;;
37787;SDS011;23627;53.302;-6.362;2022-09-27T19:04:10;7.25;;;1.60;;
37787;SDS011;23627;53.302;-6.362;2022-09-27T19:06:37;6.78;;;1.50;;
37787;SDS011;23627;53.302;-6.362;2022-09-27T19:09:04;7.03;;;1.80;;
37787;SDS011;23627;53.302;-6.362;2022-09-27T19:11:33;7.35;;;1.70;;
37787;SDS011;23627;53.302;-6.362;2022-09-27T19:14:17;6.10;;;1.80;;
37787;SDS011;23627;53.302;-6.362;2022-09-27T19:17:10;6.85;;;1.75;;
37787;SDS011;23627;53.302;-6.362;2022-09-27T19:19:36;7.13;;;2.10;;
37787;SDS011;23627;53.302;-6.362;2022-09-27T19:22:02;7.18;;;1.80;;
37787;SDS011;23627;53.302;-6.362;2022-09-27T19:24:29;7.00;;;2.05;;
37787;SDS011;23627;53.302;-6.362;2022-09-27T19:26:55;6.63;;;1.95;;
37787;SDS011;23627;53.302;-6.362;2022-09-27T19:29:21;8.27;;;2.00;;
37787;SDS011;23627;53.302;-6.362;2022-09-27T19:31:47;8.45;;;2.08;;
37787;SDS011;23627;53.302;-6.362;2022-09-27T19:34:15;5.38;;;1.80;;
37787;SDS011;23627;53.302;-6.362;2022-09-27T19:36:41;7.13;;;1.80;;
37787;SDS011;23627;53.302;-6.362;2022-09-27T19:39:07;7.85;;;1.90;;
37787;SDS011;23627;53.302;-6.362;2022-09-27T19:41:33;7.35;;;2.00;;